sensor_id;sensor_type;location;lat;lon;timestamp;P1;durP1;ratioP1;P2;durP2;ratioP2
45114;SDS011;30877;43.706;10.780;2024-02-26T00:01:18;7.20;;;3.33;;
45114;SDS011;30877;43.706;10.780;2024-02-26T00:03:49;5.93;;;3.90;;
45114;SDS011;30877;43.706;10.780;2024-02-26T00:06:19;6.15;;;3.80;;
45114;SDS011;30877;43.706;10.780;2024-02-26T00:08:50;7.05;;;3.50;;
45114;SDS011;30877;43.706;10.780;2024-02-26T00:11:19;6.03;;;3.72;;
45114;SDS011;30877;43.706;10.780;2024-02-26T00:13:49;8.10;;;3.75;;
45114;SDS011;30877;43.706;10.780;2024-02-26T00:16:19;4.70;;;3.10;;
45114;SDS011;30877;43.706;10.780;2024-02-26T00:18:50;6.03;;;3.80;;
45114;SDS011;30877;43.706;10.780;2024-02-26T00:21:21;5.38;;;3.47;;
45114;SDS011;30877;43.706;10.780;2024-02-26T00:23:52;5.65;;;3.70;;
45114;SDS011;30877;43.706;10.780;2024-02-26T00:26:21;4.80;;;3.33;;
45114;SDS011;30877;43.706;10.780;2024-02-26T00:28:50;7.60;;;3.70;;
45114;SDS011;30877;43.706;10.780;2024-02-26T00:31:21;5.95;;;3.45;;
45114;SDS011;30877;43.706;10.780;2024-02-26T00:33:50;6.40;;;3.90;;
45114;SDS011;30877;43.706;10.780;2024-02-26T00:36:21;6.43;;;3.53;;
45114;SDS011;30877;43.706;10.780;2024-02-26T00:38:53;5.47;;;3.33;;
45114;SDS011;30877;43.706;10.780;2024-02-26T00:41:23;5.07;;;3.17;;
45114;SDS011;30877;43.706;10.780;2024-02-26T00:43:53;5.80;;;3.22;;
45114;SDS011;30877;43.706;10.780;2024-02-26T00:46:23;5.68;;;3.33;;
45114;SDS011;30877;43.706;10.780;2024-02-26T00:48:53;5.07;;;3.25;;
45114;SDS011;30877;43.706;10.780;2024-02-26T00:51:22;4.30;;;3.42;;
45114;SDS011;30877;43.706;10.780;2024-02-26T00:53:53;3.88;;;3.10;;
45114;SDS011;30877;43.706;10.780;2024-02-26T00:56:23;7.13;;;3.25;;
45114;SDS011;30877;43.706;10.780;2024-02-26T00:58:53;5.47;;;3.60;;
45114;SDS011;30877;43.706;10.780;2024-02-26T01:01:23;4.43;;;3.10;;
45114;SDS011;30877;43.706;10.780;2024-02-26T01:03:52;5.03;;;3.40;;
45114;SDS011;30877;43.706;10.780;2024-02-26T01:06:23;5.70;;;4.00;;
45114;SDS011;30877;43.706;10.780;2024-02-26T01:08:53;5.00;;;3.47;;
45114;SDS011;30877;43.706;10.780;2024-02-26T01:11:22;5.80;;;3.65;;
45114;SDS011;30877;43.706;10.780;2024-02-26T01:13:53;6.55;;;3.13;;
45114;SDS011;30877;43.706;10.780;2024-02-26T01:16:25;4.40;;;3.22;;
45114;SDS011;30877;43.706;10.780;2024-02-26T01:18:57;4.15;;;2.85;;
45114;SDS011;30877;43.706;10.780;2024-02-26T01:21:30;5.35;;;3.50;;
45114;SDS011;30877;43.706;10.780;2024-02-26T01:24:03;4.80;;;3.42;;
45114;SDS011;30877;43.706;10.780;2024-02-26T01:26:33;5.68;;;3.47;;
45114;SDS011;30877;43.706;10.780;2024-02-26T01:29:02;5.45;;;3.53;;
45114;SDS011;30877;43.706;10.780;2024-02-26T01:31:32;6.88;;;3.50;;
45114;SDS011;30877;43.706;10.780;2024-02-26T01:34:03;5.03;;;3.45;;
45114;SDS011;30877;43.706;10.780;2024-02-26T01:36:32;5.45;;;3.45;;
45114;SDS011;30877;43.706;10.780;2024-02-26T01:39:03;4.93;;;3.20;;
45114;SDS011;30877;43.706;10.780;2024-02-26T01:41:32;4.38;;;3.30;;
45114;SDS011;30877;43.706;10.780;2024-02-26T01:44:03;4.68;;;3.60;;
45114;SDS011;30877;43.706;10.780;2024-02-26T01:46:32;7.72;;;3.70;;
45114;SDS011;30877;43.706;10.780;2024-02-26T01:49:06;8.02;;;3.53;;
45114;SDS011;30877;43.706;10.780;2024-02-26T01:51:36;5.13;;;3.63;;
45114;SDS011;30877;43.706;10.780;2024-02-26T01:54:10;5.70;;;3.65;;
45114;SDS011;30877;43.706;10.780;2024-02-26T01:56:41;4.90;;;3.15;;
45114;SDS011;30877;43.706;10.780;2024-02-26T01:59:10;5.40;;;2.70;;
45114;SDS011;30877;43.706;10.780;2024-02-26T02:01:40;4.40;;;2.60;;
45114;SDS011;30877;43.706;10.780;2024-02-26T02:04:15;3.83;;;2.63;;
45114;SDS011;30877;43.706;10.780;2024-02-26T02:06:45;5.22;;;2.22;;
45114;SDS011;30877;43.706;10.780;2024-02-26T02:09:19;2.75;;;2.10;;
45114;SDS011;30877;43.706;10.780;2024-02-26T02:11:48;2.90;;;2.08;;
45114;SDS011;30877;43.706;10.780;2024-02-26T02:14:17;4.97;;;2.30;;
45114;SDS011;30877;43.706;10.780;2024-02-26T02:16:48;3.33;;;2.00;;
45114;SDS011;30877;43.706;10.780;2024-02-26T02:19:17;3.33;;;2.00;;
45114;SDS011;30877;43.706;10.780;2024-02-26T02:21:49;2.30;;;1.85;;
45114;SDS011;30877;43.706;10.780;2024-02-26T02:24:18;3.17;;;1.85;;
45114;SDS011;30877;43.706;10.780;2024-02-26T02:26:50;4.40;;;2.05;;
45114;SDS011;30877;43.706;10.780;2024-02-26T02:29:19;3.00;;;1.88;;
45114;SDS011;30877;43.706;10.780;2024-02-26T02:31:48;2.65;;;1.80;;
45114;SDS011;30877;43.706;10.780;2024-02-26T02:34:18;3.50;;;2.15;;
45114;SDS011;30877;43.706;10.780;2024-02-26T02:36:54;4.05;;;1.42;;
45114;SDS011;30877;43.706;10.780;2024-02-26T02:39:24;3.97;;;1.88;;
45114;SDS011;30877;43.706;10.780;2024-02-26T02:41:54;3.72;;;1.80;;
45114;SDS011;30877;43.706;10.780;2024-02-26T02:44:23;2.72;;;1.48;;
45114;SDS011;30877;43.706;10.780;2024-02-26T02:46:53;2.25;;;1.80;;
45114;SDS011;30877;43.706;10.780;2024-02-26T02:49:23;3.55;;;1.98;;
45114;SDS011;30877;43.706;10.780;2024-02-26T02:51:56;2.80;;;1.70;;
45114;SDS011;30877;43.706;10.780;2024-02-26T02:54:25;4.20;;;2.40;;
45114;SDS011;30877;43.706;10.780;2024-02-26T02:56:55;3.70;;;2.30;;
45114;SDS011;30877;43.706;10.780;2024-02-26T02:59:25;4.20;;;2.28;;
45114;SDS011;30877;43.706;10.780;2024-02-26T03:01:53;3.67;;;1.70;;
45114;SDS011;30877;43.706;10.780;2024-02-26T03:04:22;3.20;;;2.00;;
45114;SDS011;30877;43.706;10.780;2024-02-26T03:06:51;2.80;;;1.88;;
45114;SDS011;30877;43.706;10.780;2024-02-26T03:09:22;2.63;;;2.00;;
45114;SDS011;30877;43.706;10.780;2024-02-26T03:11:51;3.83;;;1.90;;
45114;SDS011;30877;43.706;10.780;2024-02-26T03:14:20;2.38;;;1.80;;
45114;SDS011;30877;43.706;10.780;2024-02-26T03:16:48;3.28;;;1.85;;
45114;SDS011;30877;43.706;10.780;2024-02-26T03:19:17;3.78;;;2.33;;
45114;SDS011;30877;43.706;10.780;2024-02-26T03:21:47;3.45;;;2.25;;
45114;SDS011;30877;43.706;10.780;2024-02-26T03:24:16;3.20;;;2.20;;
45114;SDS011;30877;43.706;10.780;2024-02-26T03:26:48;4.93;;;2.38;;
45114;SDS011;30877;43.706;10.780;2024-02-26T03:29:16;3.80;;;2.25;;
45114;SDS011;30877;43.706;10.780;2024-02-26T03:31:47;6.45;;;2.42;;
45114;SDS011;30877;43.706;10.780;2024-02-26T03:34:17;3.55;;;2.40;;
45114;SDS011;30877;43.706;10.780;2024-02-26T03:36:47;3.45;;;2.05;;
45114;SDS011;30877;43.706;10.780;2024-02-26T03:39:17;2.70;;;1.73;;
45114;SDS011;30877;43.706;10.780;2024-02-26T03:41:50;2.92;;;2.10;;
45114;SDS011;30877;43.706;10.780;2024-02-26T03:44:19;3.17;;;1.95;;
45114;SDS011;30877;43.706;10.780;2024-02-26T03:46:48;3.88;;;1.83;;
45114;SDS011;30877;43.706;10.780;2024-02-26T03:49:17;2.42;;;1.58;;
45114;SDS011;30877;43.706;10.780;2024-02-26T03:51:46;3.80;;;1.73;;
45114;SDS011;30877;43.706;10.780;2024-02-26T03:54:16;2.45;;;1.83;;
45114;SDS011;30877;43.706;10.780;2024-02-26T03:56:49;2.53;;;1.73;;
45114;SDS011;30877;43.706;10.780;2024-02-26T03:59:18;4.25;;;2.00;;
45114;SDS011;30877;43.706;10.780;2024-02-26T04:01:47;3.60;;;1.75;;
45114;SDS011;30877;43.706;10.780;2024-02-26T04:04:17;3.28;;;1.63;;
45114;SDS011;30877;43.706;10.780;2024-02-26T04:06:46;2.70;;;1.90;;
45114;SDS011;30877;43.706;10.780;2024-02-26T04:09:16;5.75;;;1.85;;
45114;SDS011;30877;43.706;10.780;2024-02-26T04:11:46;3.03;;;1.75;;
45114;SDS011;30877;43.706;10.780;2024-02-26T04:14:16;3.30;;;1.73;;
45114;SDS011;30877;43.706;10.780;2024-02-26T04:16:45;2.20;;;1.67;;
45114;SDS011;30877;43.706;10.780;2024-02-26T04:19:15;3.00;;;1.60;;
45114;SDS011;30877;43.706;10.780;2024-02-26T04:21:45;2.45;;;1.70;;
45114;SDS011;30877;43.706;10.780;2024-02-26T04:24:15;2.47;;;1.40;;
45114;SDS011;30877;43.706;10.780;2024-02-26T04:26:45;3.63;;;1.77;;
45114;SDS011;30877;43.706;10.780;2024-02-26T04:29:16;3.92;;;1.70;;
45114;SDS011;30877;43.706;10.780;2024-02-26T04:31:47;2.47;;;1.40;;
45114;SDS011;30877;43.706;10.780;2024-02-26T04:34:16;3.38;;;1.75;;
45114;SDS011;30877;43.706;10.780;2024-02-26T04:36:46;3.63;;;1.90;;
45114;SDS011;30877;43.706;10.780;2024-02-26T04:39:17;3.15;;;1.77;;
45114;SDS011;30877;43.706;10.780;2024-02-26T04:41:47;3.42;;;1.83;;
45114;SDS011;30877;43.706;10.780;2024-02-26T04:44:19;3.83;;;1.77;;
45114;SDS011;30877;43.706;10.780;2024-02-26T04:46:48;3.35;;;1.60;;
45114;SDS011;30877;43.706;10.780;2024-02-26T04:49:19;3.55;;;1.58;;
45114;SDS011;30877;43.706;10.780;2024-02-26T04:51:48;3.50;;;1.90;;
45114;SDS011;30877;43.706;10.780;2024-02-26T04:54:17;4.07;;;1.80;;
45114;SDS011;30877;43.706;10.780;2024-02-26T04:56:45;3.17;;;1.50;;
45114;SDS011;30877;43.706;10.780;2024-02-26T04:59:14;2.90;;;1.60;;
45114;SDS011;30877;43.706;10.780;2024-02-26T05:01:44;2.88;;;1.77;;
45114;SDS011;30877;43.706;10.780;2024-02-26T05:04:13;2.60;;;1.35;;
45114;SDS011;30877;43.706;10.780;2024-02-26T05:06:42;2.53;;;1.65;;
45114;SDS011;30877;43.706;10.780;2024-02-26T05:09:10;3.78;;;1.60;;
45114;SDS011;30877;43.706;10.780;2024-02-26T05:11:40;6.72;;;1.67;;
45114;SDS011;30877;43.706;10.780;2024-02-26T05:14:10;2.83;;;1.70;;
45114;SDS011;30877;43.706;10.780;2024-02-26T05:16:39;3.38;;;1.50;;
45114;SDS011;30877;43.706;10.780;2024-02-26T05:19:11;3.55;;;1.85;;
45114;SDS011;30877;43.706;10.780;2024-02-26T05:21:40;2.95;;;2.20;;
45114;SDS011;30877;43.706;10.780;2024-02-26T05:24:11;2.47;;;1.65;;
45114;SDS011;30877;43.706;10.780;2024-02-26T05:26:45;4.30;;;1.90;;
45114;SDS011;30877;43.706;10.780;2024-02-26T05:29:15;2.60;;;1.52;;
45114;SDS011;30877;43.706;10.780;2024-02-26T05:31:43;2.58;;;1.83;;
45114;SDS011;30877;43.706;10.780;2024-02-26T05:34:15;3.35;;;1.60;;
45114;SDS011;30877;43.706;10.780;2024-02-26T05:36:44;1.95;;;1.50;;
45114;SDS011;30877;43.706;10.780;2024-02-26T05:39:15;4.97;;;1.73;;
45114;SDS011;30877;43.706;10.780;2024-02-26T05:41:47;3.13;;;1.60;;
45114;SDS011;30877;43.706;10.780;2024-02-26T05:44:17;1.95;;;1.40;;
45114;SDS011;30877;43.706;10.780;2024-02-26T05:46:46;3.13;;;1.40;;
45114;SDS011;30877;43.706;10.780;2024-02-26T05:49:17;3.20;;;1.67;;
45114;SDS011;30877;43.706;10.780;2024-02-26T05:51:46;2.83;;;1.63;;
45114;SDS011;30877;43.706;10.780;2024-02-26T05:54:16;2.15;;;1.00;;
45114;SDS011;30877;43.706;10.780;2024-02-26T05:56:46;2.22;;;1.20;;
45114;SDS011;30877;43.706;10.780;2024-02-26T05:59:15;2.65;;;1.30;;
45114;SDS011;30877;43.706;10.780;2024-02-26T06:01:43;3.00;;;1.30;;
45114;SDS011;30877;43.706;10.780;2024-02-26T06:04:11;2.42;;;1.13;;
45114;SDS011;30877;43.706;10.780;2024-02-26T06:06:42;2.00;;;1.10;;
45114;SDS011;30877;43.706;10.780;2024-02-26T06:09:13;2.30;;;1.23;;
45114;SDS011;30877;43.706;10.780;2024-02-26T06:11:42;2.13;;;1.02;;
45114;SDS011;30877;43.706;10.780;2024-02-26T06:14:13;3.60;;;1.33;;
45114;SDS011;30877;43.706;10.780;2024-02-26T06:16:46;3.50;;;1.13;;
45114;SDS011;30877;43.706;10.780;2024-02-26T06:19:16;1.70;;;1.00;;
45114;SDS011;30877;43.706;10.780;2024-02-26T06:21:47;1.85;;;1.08;;
45114;SDS011;30877;43.706;10.780;2024-02-26T06:24:16;1.67;;;0.95;;
45114;SDS011;30877;43.706;10.780;2024-02-26T06:26:47;2.88;;;1.10;;
45114;SDS011;30877;43.706;10.780;2024-02-26T06:29:16;1.92;;;1.10;;
45114;SDS011;30877;43.706;10.780;2024-02-26T06:31:49;3.42;;;1.10;;
45114;SDS011;30877;43.706;10.780;2024-02-26T06:34:20;2.35;;;0.98;;
45114;SDS011;30877;43.706;10.780;2024-02-26T06:36:52;3.05;;;1.00;;
45114;SDS011;30877;43.706;10.780;2024-02-26T06:39:21;2.38;;;1.10;;
45114;SDS011;30877;43.706;10.780;2024-02-26T06:41:53;2.15;;;1.15;;
45114;SDS011;30877;43.706;10.780;2024-02-26T06:44:27;7.05;;;3.63;;
45114;SDS011;30877;43.706;10.780;2024-02-26T06:47:03;9.15;;;3.90;;
45114;SDS011;30877;43.706;10.780;2024-02-26T06:49:32;4.32;;;2.72;;
45114;SDS011;30877;43.706;10.780;2024-02-26T06:52:04;2.83;;;1.80;;
45114;SDS011;30877;43.706;10.780;2024-02-26T06:54:33;3.80;;;1.50;;
45114;SDS011;30877;43.706;10.780;2024-02-26T06:57:05;3.83;;;1.50;;
45114;SDS011;30877;43.706;10.780;2024-02-26T06:59:33;2.55;;;1.13;;
45114;SDS011;30877;43.706;10.780;2024-02-26T07:02:03;2.83;;;1.25;;
45114;SDS011;30877;43.706;10.780;2024-02-26T07:04:33;2.55;;;1.33;;
45114;SDS011;30877;43.706;10.780;2024-02-26T07:07:06;2.22;;;1.38;;
45114;SDS011;30877;43.706;10.780;2024-02-26T07:09:35;2.63;;;1.60;;
45114;SDS011;30877;43.706;10.780;2024-02-26T07:12:06;2.10;;;1.13;;
45114;SDS011;30877;43.706;10.780;2024-02-26T07:14:39;2.05;;;1.55;;
45114;SDS011;30877;43.706;10.780;2024-02-26T07:17:10;2.17;;;1.13;;
45114;SDS011;30877;43.706;10.780;2024-02-26T07:19:40;1.48;;;0.90;;
45114;SDS011;30877;43.706;10.780;2024-02-26T07:22:11;3.03;;;0.90;;
45114;SDS011;30877;43.706;10.780;2024-02-26T07:24:44;5.78;;;1.08;;
45114;SDS011;30877;43.706;10.780;2024-02-26T07:27:13;3.72;;;1.27;;
45114;SDS011;30877;43.706;10.780;2024-02-26T07:29:45;2.65;;;1.10;;
45114;SDS011;30877;43.706;10.780;2024-02-26T07:32:17;1.85;;;0.95;;
45114;SDS011;30877;43.706;10.780;2024-02-26T07:34:47;4.35;;;1.50;;
45114;SDS011;30877;43.706;10.780;2024-02-26T07:37:17;3.58;;;1.30;;
45114;SDS011;30877;43.706;10.780;2024-02-26T07:39:47;2.30;;;1.10;;
45114;SDS011;30877;43.706;10.780;2024-02-26T07:42:19;2.65;;;1.30;;
45114;SDS011;30877;43.706;10.780;2024-02-26T07:44:47;2.10;;;1.30;;
45114;SDS011;30877;43.706;10.780;2024-02-26T07:47:19;2.75;;;1.65;;
45114;SDS011;30877;43.706;10.780;2024-02-26T07:49:49;3.08;;;1.55;;
45114;SDS011;30877;43.706;10.780;2024-02-26T07:52:22;2.85;;;1.60;;
45114;SDS011;30877;43.706;10.780;2024-02-26T07:54:52;3.15;;;1.83;;
45114;SDS011;30877;43.706;10.780;2024-02-26T07:57:21;3.05;;;1.90;;
45114;SDS011;30877;43.706;10.780;2024-02-26T07:59:50;4.22;;;2.40;;
45114;SDS011;30877;43.706;10.780;2024-02-26T08:02:21;4.28;;;2.08;;
45114;SDS011;30877;43.706;10.780;2024-02-26T08:04:54;3.35;;;2.30;;
45114;SDS011;30877;43.706;10.780;2024-02-26T08:07:25;4.63;;;2.00;;
45114;SDS011;30877;43.706;10.780;2024-02-26T08:10:00;5.93;;;2.65;;
45114;SDS011;30877;43.706;10.780;2024-02-26T08:12:29;5.47;;;2.60;;
45114;SDS011;30877;43.706;10.780;2024-02-26T08:15:00;3.95;;;2.90;;
45114;SDS011;30877;43.706;10.780;2024-02-26T08:17:29;5.43;;;3.13;;
45114;SDS011;30877;43.706;10.780;2024-02-26T08:19:59;6.25;;;4.20;;
45114;SDS011;30877;43.706;10.780;2024-02-26T08:22:35;7.22;;;5.28;;
45114;SDS011;30877;43.706;10.780;2024-02-26T08:25:06;7.43;;;4.47;;
45114;SDS011;30877;43.706;10.780;2024-02-26T08:27:38;6.85;;;4.45;;
45114;SDS011;30877;43.706;10.780;2024-02-26T08:30:10;6.07;;;3.65;;
45114;SDS011;30877;43.706;10.780;2024-02-26T08:32:43;5.32;;;3.13;;
45114;SDS011;30877;43.706;10.780;2024-02-26T08:35:17;4.05;;;3.00;;
45114;SDS011;30877;43.706;10.780;2024-02-26T08:37:51;6.95;;;3.00;;
45114;SDS011;30877;43.706;10.780;2024-02-26T08:40:20;4.43;;;3.33;;
45114;SDS011;30877;43.706;10.780;2024-02-26T08:42:51;3.78;;;2.78;;
45114;SDS011;30877;43.706;10.780;2024-02-26T08:45:21;5.68;;;4.07;;
45114;SDS011;30877;43.706;10.780;2024-02-26T08:47:53;6.80;;;3.58;;
45114;SDS011;30877;43.706;10.780;2024-02-26T08:50:23;5.18;;;2.88;;
45114;SDS011;30877;43.706;10.780;2024-02-26T08:52:56;6.05;;;3.30;;
45114;SDS011;30877;43.706;10.780;2024-02-26T08:55:24;5.63;;;3.58;;
45114;SDS011;30877;43.706;10.780;2024-02-26T08:57:54;6.90;;;3.80;;
45114;SDS011;30877;43.706;10.780;2024-02-26T09:00:23;7.07;;;4.28;;
45114;SDS011;30877;43.706;10.780;2024-02-26T09:02:54;9.23;;;6.60;;
45114;SDS011;30877;43.706;10.780;2024-02-26T09:05:22;9.90;;;6.68;;
45114;SDS011;30877;43.706;10.780;2024-02-26T09:07:52;11.77;;;8.48;;
45114;SDS011;30877;43.706;10.780;2024-02-26T09:10:22;11.15;;;8.43;;
45114;SDS011;30877;43.706;10.780;2024-02-26T09:12:54;11.38;;;8.80;;
45114;SDS011;30877;43.706;10.780;2024-02-26T09:15:23;8.55;;;6.05;;
45114;SDS011;30877;43.706;10.780;2024-02-26T09:17:54;7.53;;;5.68;;
45114;SDS011;30877;43.706;10.780;2024-02-26T09:20:24;3.58;;;2.35;;
45114;SDS011;30877;43.706;10.780;2024-02-26T09:22:53;5.53;;;3.35;;
45114;SDS011;30877;43.706;10.780;2024-02-26T09:25:25;4.97;;;3.22;;
45114;SDS011;30877;43.706;10.780;2024-02-26T09:27:56;5.07;;;3.45;;
45114;SDS011;30877;43.706;10.780;2024-02-26T09:30:27;4.03;;;2.80;;
45114;SDS011;30877;43.706;10.780;2024-02-26T09:32:57;4.95;;;3.03;;
45114;SDS011;30877;43.706;10.780;2024-02-26T09:35:28;3.97;;;2.25;;
45114;SDS011;30877;43.706;10.780;2024-02-26T09:37:57;4.63;;;2.88;;
45114;SDS011;30877;43.706;10.780;2024-02-26T09:40:28;4.90;;;2.45;;
45114;SDS011;30877;43.706;10.780;2024-02-26T09:42:59;3.20;;;2.47;;
45114;SDS011;30877;43.706;10.780;2024-02-26T09:45:32;4.00;;;2.58;;
45114;SDS011;30877;43.706;10.780;2024-02-26T09:48:05;4.82;;;2.90;;
45114;SDS011;30877;43.706;10.780;2024-02-26T09:50:37;6.22;;;3.33;;
45114;SDS011;30877;43.706;10.780;2024-02-26T09:53:07;2.72;;;2.45;;
45114;SDS011;30877;43.706;10.780;2024-02-26T09:55:40;4.18;;;2.55;;
45114;SDS011;30877;43.706;10.780;2024-02-26T09:58:10;3.55;;;2.50;;
45114;SDS011;30877;43.706;10.780;2024-02-26T10:00:46;5.67;;;2.20;;
45114;SDS011;30877;43.706;10.780;2024-02-26T10:03:20;3.55;;;2.72;;
45114;SDS011;30877;43.706;10.780;2024-02-26T10:05:53;8.18;;;2.92;;
45114;SDS011;30877;43.706;10.780;2024-02-26T10:08:23;4.50;;;2.42;;
45114;SDS011;30877;43.706;10.780;2024-02-26T10:10:56;4.57;;;3.50;;
45114;SDS011;30877;43.706;10.780;2024-02-26T10:13:25;4.68;;;3.15;;
45114;SDS011;30877;43.706;10.780;2024-02-26T10:15:56;6.65;;;3.10;;
45114;SDS011;30877;43.706;10.780;2024-02-26T10:18:27;3.92;;;2.80;;
45114;SDS011;30877;43.706;10.780;2024-02-26T10:21:04;4.30;;;2.60;;
45114;SDS011;30877;43.706;10.780;2024-02-26T10:23:33;6.28;;;3.97;;
45114;SDS011;30877;43.706;10.780;2024-02-26T10:26:08;4.75;;;3.10;;
45114;SDS011;30877;43.706;10.780;2024-02-26T10:28:42;6.70;;;3.13;;
45114;SDS011;30877;43.706;10.780;2024-02-26T10:31:20;5.05;;;3.75;;
45114;SDS011;30877;43.706;10.780;2024-02-26T10:33:49;5.68;;;3.85;;
45114;SDS011;30877;43.706;10.780;2024-02-26T10:36:25;4.80;;;3.28;;
45114;SDS011;30877;43.706;10.780;2024-02-26T10:39:14;5.55;;;3.92;;
45114;SDS011;30877;43.706;10.780;2024-02-26T10:41:46;5.50;;;3.92;;
45114;SDS011;30877;43.706;10.780;2024-02-26T10:44:17;5.72;;;3.80;;
45114;SDS011;30877;43.706;10.780;2024-02-26T10:46:46;4.88;;;3.75;;
45114;SDS011;30877;43.706;10.780;2024-02-26T10:49:22;6.57;;;4.30;;
45114;SDS011;30877;43.706;10.780;2024-02-26T10:51:53;5.07;;;3.30;;
45114;SDS011;30877;43.706;10.780;2024-02-26T10:54:26;5.97;;;4.47;;
45114;SDS011;30877;43.706;10.780;2024-02-26T10:57:00;5.10;;;4.00;;
45114;SDS011;30877;43.706;10.780;2024-02-26T10:59:31;7.57;;;4.93;;
45114;SDS011;30877;43.706;10.780;2024-02-26T11:02:02;5.25;;;4.30;;
45114;SDS011;30877;43.706;10.780;2024-02-26T11:04:33;9.15;;;4.60;;
45114;SDS011;30877;43.706;10.780;2024-02-26T11:07:02;7.43;;;4.68;;
45114;SDS011;30877;43.706;10.780;2024-02-26T11:09:37;5.63;;;3.92;;
45114;SDS011;30877;43.706;10.780;2024-02-26T11:12:12;7.80;;;4.90;;
45114;SDS011;30877;43.706;10.780;2024-02-26T11:14:41;7.03;;;5.13;;
45114;SDS011;30877;43.706;10.780;2024-02-26T11:17:16;5.72;;;4.70;;
45114;SDS011;30877;43.706;10.780;2024-02-26T11:19:47;6.40;;;4.50;;
45114;SDS011;30877;43.706;10.780;2024-02-26T11:22:19;9.90;;;4.25;;
45114;SDS011;30877;43.706;10.780;2024-02-26T11:24:53;6.55;;;4.90;;
45114;SDS011;30877;43.706;10.780;2024-02-26T11:27:32;9.50;;;5.17;;
45114;SDS011;30877;43.706;10.780;2024-02-26T11:30:08;6.93;;;5.00;;
45114;SDS011;30877;43.706;10.780;2024-02-26T11:32:38;7.13;;;4.68;;
45114;SDS011;30877;43.706;10.780;2024-02-26T11:35:07;6.32;;;4.55;;
45114;SDS011;30877;43.706;10.780;2024-02-26T11:37:38;7.03;;;4.80;;
45114;SDS011;30877;43.706;10.780;2024-02-26T11:40:13;6.65;;;4.15;;
45114;SDS011;30877;43.706;10.780;2024-02-26T11:42:45;8.43;;;4.45;;
45114;SDS011;30877;43.706;10.780;2024-02-26T11:48:24;4.70;;;3.95;;
45114;SDS011;30877;43.706;10.780;2024-02-26T11:50:54;7.68;;;4.68;;
45114;SDS011;30877;43.706;10.780;2024-02-26T11:53:24;6.88;;;4.25;;
45114;SDS011;30877;43.706;10.780;2024-02-26T11:56:13;4.80;;;4.10;;
45114;SDS011;30877;43.706;10.780;2024-02-26T12:01:35;7.28;;;4.45;;
45114;SDS011;30877;43.706;10.780;2024-02-26T12:04:11;8.20;;;4.45;;
45114;SDS011;30877;43.706;10.780;2024-02-26T12:06:42;6.57;;;3.72;;
45114;SDS011;30877;43.706;10.780;2024-02-26T12:12:06;5.85;;;4.20;;
45114;SDS011;30877;43.706;10.780;2024-02-26T12:14:39;9.65;;;5.55;;
45114;SDS011;30877;43.706;10.780;2024-02-26T12:17:21;14.45;;;8.45;;
45114;SDS011;30877;43.706;10.780;2024-02-26T12:19:52;14.02;;;9.00;;
45114;SDS011;30877;43.706;10.780;2024-02-26T12:22:21;11.77;;;7.50;;
45114;SDS011;30877;43.706;10.780;2024-02-26T12:24:58;9.75;;;6.00;;
45114;SDS011;30877;43.706;10.780;2024-02-26T12:27:28;8.18;;;4.75;;
45114;SDS011;30877;43.706;10.780;2024-02-26T12:30:00;5.88;;;4.38;;
45114;SDS011;30877;43.706;10.780;2024-02-26T12:32:31;5.40;;;4.10;;
45114;SDS011;30877;43.706;10.780;2024-02-26T12:35:01;6.78;;;4.85;;
45114;SDS011;30877;43.706;10.780;2024-02-26T12:37:33;6.50;;;4.93;;
45114;SDS011;30877;43.706;10.780;2024-02-26T12:40:08;7.57;;;5.30;;
45114;SDS011;30877;43.706;10.780;2024-02-26T12:42:40;6.43;;;4.65;;
45114;SDS011;30877;43.706;10.780;2024-02-26T12:45:11;22.85;;;14.98;;
45114;SDS011;30877;43.706;10.780;2024-02-26T12:47:42;12.68;;;7.25;;
45114;SDS011;30877;43.706;10.780;2024-02-26T12:50:12;9.10;;;5.85;;
45114;SDS011;30877;43.706;10.780;2024-02-26T12:52:42;6.70;;;4.68;;
45114;SDS011;30877;43.706;10.780;2024-02-26T12:55:13;7.93;;;4.40;;
45114;SDS011;30877;43.706;10.780;2024-02-26T12:57:47;4.97;;;3.60;;
45114;SDS011;30877;43.706;10.780;2024-02-26T13:00:23;6.63;;;4.22;;
45114;SDS011;30877;43.706;10.780;2024-02-26T13:02:53;7.05;;;5.53;;
45114;SDS011;30877;43.706;10.780;2024-02-26T13:05:24;9.25;;;5.57;;
45114;SDS011;30877;43.706;10.780;2024-02-26T13:07:54;9.38;;;7.05;;
45114;SDS011;30877;43.706;10.780;2024-02-26T13:10:24;12.43;;;7.43;;
45114;SDS011;30877;43.706;10.780;2024-02-26T13:12:53;10.00;;;7.28;;
45114;SDS011;30877;43.706;10.780;2024-02-26T13:15:26;11.80;;;7.25;;
45114;SDS011;30877;43.706;10.780;2024-02-26T13:17:57;10.55;;;6.63;;
45114;SDS011;30877;43.706;10.780;2024-02-26T13:20:36;8.25;;;5.70;;
45114;SDS011;30877;43.706;10.780;2024-02-26T13:23:07;8.75;;;5.40;;
45114;SDS011;30877;43.706;10.780;2024-02-26T13:25:42;7.80;;;4.75;;
45114;SDS011;30877;43.706;10.780;2024-02-26T13:28:15;7.07;;;4.53;;
45114;SDS011;30877;43.706;10.780;2024-02-26T13:30:52;5.93;;;3.75;;
45114;SDS011;30877;43.706;10.780;2024-02-26T13:33:24;5.75;;;4.13;;
45114;SDS011;30877;43.706;10.780;2024-02-26T13:35:58;5.90;;;4.35;;
45114;SDS011;30877;43.706;10.780;2024-02-26T13:38:27;7.43;;;5.10;;
45114;SDS011;30877;43.706;10.780;2024-02-26T13:40:59;7.18;;;4.38;;
45114;SDS011;30877;43.706;10.780;2024-02-26T13:43:32;6.55;;;4.90;;
45114;SDS011;30877;43.706;10.780;2024-02-26T13:46:05;8.43;;;6.03;;
45114;SDS011;30877;43.706;10.780;2024-02-26T13:48:37;11.02;;;7.57;;
45114;SDS011;30877;43.706;10.780;2024-02-26T13:51:09;8.23;;;5.93;;
45114;SDS011;30877;43.706;10.780;2024-02-26T13:53:38;8.93;;;6.60;;
45114;SDS011;30877;43.706;10.780;2024-02-26T13:56:09;10.75;;;7.22;;
45114;SDS011;30877;43.706;10.780;2024-02-26T13:58:40;10.60;;;6.32;;
45114;SDS011;30877;43.706;10.780;2024-02-26T14:01:11;8.85;;;6.70;;
45114;SDS011;30877;43.706;10.780;2024-02-26T14:03:40;9.63;;;6.88;;
45114;SDS011;30877;43.706;10.780;2024-02-26T14:06:12;10.75;;;6.43;;
45114;SDS011;30877;43.706;10.780;2024-02-26T14:08:43;6.97;;;5.03;;
45114;SDS011;30877;43.706;10.780;2024-02-26T14:11:13;9.52;;;5.97;;
45114;SDS011;30877;43.706;10.780;2024-02-26T14:13:44;9.23;;;5.35;;
45114;SDS011;30877;43.706;10.780;2024-02-26T14:16:16;8.52;;;5.63;;
45114;SDS011;30877;43.706;10.780;2024-02-26T14:18:47;10.70;;;7.38;;
45114;SDS011;30877;43.706;10.780;2024-02-26T14:21:17;9.48;;;5.32;;
45114;SDS011;30877;43.706;10.780;2024-02-26T14:23:48;11.25;;;7.13;;
45114;SDS011;30877;43.706;10.780;2024-02-26T14:26:20;7.63;;;5.10;;
45114;SDS011;30877;43.706;10.780;2024-02-26T14:28:49;14.57;;;7.18;;
45114;SDS011;30877;43.706;10.780;2024-02-26T14:31:20;10.85;;;6.82;;
45114;SDS011;30877;43.706;10.780;2024-02-26T14:33:50;10.30;;;6.47;;
45114;SDS011;30877;43.706;10.780;2024-02-26T14:36:24;10.40;;;6.60;;
45114;SDS011;30877;43.706;10.780;2024-02-26T14:38:55;11.63;;;6.90;;
45114;SDS011;30877;43.706;10.780;2024-02-26T14:41:28;10.27;;;6.07;;
45114;SDS011;30877;43.706;10.780;2024-02-26T14:43:58;15.00;;;7.78;;
45114;SDS011;30877;43.706;10.780;2024-02-26T14:46:28;11.88;;;7.43;;
45114;SDS011;30877;43.706;10.780;2024-02-26T14:48:58;7.93;;;4.60;;
45114;SDS011;30877;43.706;10.780;2024-02-26T14:51:29;8.05;;;4.50;;
45114;SDS011;30877;43.706;10.780;2024-02-26T14:53:58;10.00;;;5.28;;
45114;SDS011;30877;43.706;10.780;2024-02-26T14:56:29;12.32;;;6.75;;
45114;SDS011;30877;43.706;10.780;2024-02-26T14:59:05;17.90;;;10.15;;
45114;SDS011;30877;43.706;10.780;2024-02-26T15:01:36;15.02;;;7.93;;
45114;SDS011;30877;43.706;10.780;2024-02-26T15:04:08;36.83;;;18.85;;